createdAt,value
2022-09-09T00:00:16.863Z,13.62
2022-09-09T00:01:16.845Z,13.60
2022-09-09T00:02:16.984Z,13.59
2022-09-09T00:03:16.922Z,13.60
2022-09-09T00:04:16.782Z,13.59
2022-09-09T00:05:16.764Z,13.56
2022-09-09T00:06:16.725Z,13.56
2022-09-09T00:07:16.716Z,13.56
2022-09-09T00:08:16.776Z,13.53
2022-09-09T00:09:16.726Z,13.53
2022-09-09T00:10:16.699Z,13.52
2022-09-09T00:11:16.665Z,13.50
2022-09-09T00:12:19.658Z,13.50
2022-09-09T00:13:19.778Z,13.52
2022-09-09T00:14:16.667Z,13.49
2022-09-09T00:15:16.606Z,13.47
2022-09-09T00:16:16.667Z,13.49
2022-09-09T00:17:16.585Z,13.49
2022-09-09T00:18:16.560Z,13.49
2022-09-09T00:19:16.729Z,13.47
2022-09-09T00:20:16.569Z,13.49
2022-09-09T00:21:16.602Z,13.46
2022-09-09T00:22:16.502Z,13.47
2022-09-09T00:23:16.520Z,13.47
2022-09-09T00:24:16.492Z,13.46
2022-09-09T00:25:16.522Z,13.44
2022-09-09T00:26:16.452Z,13.46
2022-09-09T00:27:16.432Z,13.46
2022-09-09T00:28:16.445Z,13.46
2022-09-09T00:29:16.412Z,13.46
2022-09-09T00:30:16.394Z,13.46
2022-09-09T00:31:16.511Z,13.46
2022-09-09T00:32:19.368Z,13.41
2022-09-09T00:33:19.388Z,13.46
2022-09-09T00:34:16.335Z,13.42
2022-09-09T00:35:16.345Z,13.42
2022-09-09T00:36:16.373Z,13.39
2022-09-09T00:37:16.368Z,13.41
2022-09-09T00:38:16.322Z,13.39
2022-09-09T00:39:16.287Z,13.39
2022-09-09T00:40:16.322Z,13.38
2022-09-09T00:41:16.257Z,13.37
2022-09-09T00:42:16.238Z,13.35
2022-09-09T00:43:16.267Z,13.33
2022-09-09T00:44:16.208Z,13.31
2022-09-09T00:45:16.208Z,13.28
2022-09-09T00:46:16.262Z,13.25
2022-09-09T00:47:16.173Z,13.22
2022-09-09T00:48:16.182Z,13.19
2022-09-09T00:49:16.218Z,13.13
2022-09-09T00:50:16.111Z,13.09
2022-09-09T00:51:16.135Z,13.08
2022-09-09T00:52:19.098Z,13.04
2022-09-09T00:53:19.126Z,13.01
2022-09-09T00:54:16.072Z,12.98
2022-09-09T00:55:16.060Z,12.93
2022-09-09T00:56:16.131Z,12.91
2022-09-09T00:57:16.023Z,12.87
2022-09-09T00:58:16.043Z,12.86
2022-09-09T00:59:16.164Z,12.83
2022-09-09T01:00:15.983Z,12.82
2022-09-09T01:01:16.013Z,12.82
2022-09-09T01:02:16.019Z,12.80
2022-09-09T01:03:15.953Z,12.78
2022-09-09T01:04:15.944Z,12.75
2022-09-09T01:05:15.967Z,12.73
2022-09-09T01:06:15.953Z,12.75
2022-09-09T01:07:15.895Z,12.70
2022-09-09T01:08:15.877Z,12.70
2022-09-09T01:09:15.887Z,12.68
2022-09-09T01:10:15.878Z,12.67
2022-09-09T01:11:16.337Z,12.65
2022-09-09T01:12:18.862Z,12.65
2022-09-09T01:13:18.830Z,12.67
2022-09-09T01:14:15.898Z,12.62
2022-09-09T01:15:15.779Z,12.61
2022-09-09T01:16:15.783Z,12.58
2022-09-09T01:17:15.751Z,12.57
2022-09-09T01:18:15.789Z,12.53
2022-09-09T01:19:15.850Z,12.53
2022-09-09T01:20:15.702Z,12.50
2022-09-09T01:21:15.702Z,12.47
2022-09-09T01:22:15.762Z,12.46
2022-09-09T01:23:15.710Z,12.45
2022-09-09T01:24:15.824Z,12.45
2022-09-09T01:25:15.712Z,12.46
2022-09-09T01:26:15.678Z,12.47
2022-09-09T01:27:15.644Z,12.46
2022-09-09T01:28:15.603Z,12.43
2022-09-09T01:29:15.603Z,12.42
2022-09-09T01:30:15.604Z,12.39
2022-09-09T01:31:15.879Z,12.39
2022-09-09T01:32:18.615Z,12.37
2022-09-09T01:33:18.625Z,12.35
2022-09-09T01:34:15.602Z,12.32
2022-09-09T01:35:15.587Z,12.29
2022-09-09T01:36:15.526Z,12.31
2022-09-09T01:37:15.473Z,12.31
2022-09-09T01:38:15.456Z,12.32
2022-09-09T01:39:15.447Z,12.35
2022-09-09T01:40:15.521Z,12.37
2022-09-09T01:41:15.448Z,12.37
2022-09-09T01:42:15.407Z,12.39
2022-09-09T01:43:15.567Z,12.39
2022-09-09T01:44:15.378Z,12.40
2022-09-09T01:45:15.370Z,12.39
2022-09-09T01:46:15.638Z,12.39
2022-09-09T01:47:15.390Z,12.42
2022-09-09T01:48:15.320Z,12.39
2022-09-09T01:49:15.415Z,12.37
2022-09-09T01:50:15.313Z,12.42
2022-09-09T01:51:15.281Z,12.43
2022-09-09T01:52:18.301Z,12.45
2022-09-09T01:53:18.279Z,12.46
2022-09-09T01:54:15.246Z,12.45
2022-09-09T01:55:15.261Z,12.43
2022-09-09T01:56:15.975Z,12.45
2022-09-09T01:57:15.215Z,12.46
2022-09-09T01:58:15.424Z,12.47
2022-09-09T01:59:15.194Z,12.47
2022-09-09T02:00:15.204Z,12.50
2022-09-09T02:01:16.167Z,12.54
2022-09-09T02:02:15.232Z,12.54
2022-09-09T02:03:15.165Z,12.54
2022-09-09T02:04:15.126Z,12.54
2022-09-09T02:05:15.085Z,12.55
2022-09-09T02:06:15.835Z,12.57
2022-09-09T02:07:15.116Z,12.58
2022-09-09T02:08:15.076Z,12.58
2022-09-09T02:09:15.066Z,12.61
2022-09-09T02:10:15.046Z,12.62
2022-09-09T02:11:15.764Z,12.62
2022-09-09T02:12:18.108Z,12.68
2022-09-09T02:13:18.011Z,12.72
2022-09-09T02:14:14.977Z,12.70
2022-09-09T02:15:15.028Z,12.70
2022-09-09T02:16:15.732Z,12.72
2022-09-09T02:17:15.010Z,12.73
2022-09-09T02:18:15.035Z,12.76
2022-09-09T02:19:14.999Z,12.78
2022-09-09T02:20:14.969Z,12.78
2022-09-09T02:21:15.894Z,12.80
2022-09-09T02:22:14.911Z,12.83
2022-09-09T02:23:14.938Z,12.86
2022-09-09T02:24:14.901Z,12.90
2022-09-09T02:25:14.860Z,12.91
2022-09-09T02:26:15.764Z,12.91
2022-09-09T02:27:14.802Z,12.94
2022-09-09T02:28:14.783Z,12.94
2022-09-09T02:29:14.794Z,12.95
2022-09-09T02:30:14.754Z,12.97
2022-09-09T02:31:15.523Z,12.98
2022-09-09T02:32:17.761Z,13.00
2022-09-09T02:33:17.775Z,13.01
2022-09-09T02:34:14.755Z,13.00
2022-09-09T02:35:14.716Z,12.98
2022-09-09T02:36:15.616Z,13.00
2022-09-09T02:37:14.747Z,13.00
2022-09-09T02:38:14.637Z,13.00
2022-09-09T02:39:14.658Z,13.00
2022-09-09T02:40:14.677Z,12.98
2022-09-09T02:41:14.629Z,12.95
2022-09-09T02:42:14.658Z,12.94
2022-09-09T02:43:14.639Z,12.94
2022-09-09T02:44:14.726Z,12.93
2022-09-09T02:45:14.593Z,12.90
2022-09-09T02:46:14.667Z,12.91
2022-09-09T02:47:14.689Z,12.87
2022-09-09T02:48:14.522Z,12.86
2022-09-09T02:49:14.585Z,12.86
2022-09-09T02:50:14.530Z,12.85
2022-09-09T02:51:15.213Z,12.83
2022-09-09T02:52:17.533Z,12.83
2022-09-09T02:53:17.502Z,12.85
2022-09-09T02:54:14.411Z,12.78
2022-09-09T02:55:14.439Z,12.75
2022-09-09T02:56:15.203Z,12.72
2022-09-09T02:57:14.372Z,12.68
2022-09-09T02:58:14.352Z,12.68
2022-09-09T02:59:14.434Z,12.68
2022-09-09T03:00:14.351Z,12.68
2022-09-09T03:01:15.147Z,12.70
2022-09-09T03:02:14.476Z,12.68
2022-09-09T03:03:14.374Z,12.65
2022-09-09T03:04:14.374Z,12.64
2022-09-09T03:05:14.346Z,12.61
2022-09-09T03:06:14.316Z,12.57
2022-09-09T03:07:14.263Z,12.58
2022-09-09T03:08:14.274Z,12.57
2022-09-09T03:09:14.215Z,12.55
2022-09-09T03:10:14.296Z,12.55
2022-09-09T03:11:14.187Z,12.54
2022-09-09T03:12:17.172Z,12.49
2022-09-09T03:13:17.173Z,12.50
2022-09-09T03:14:14.137Z,12.46
2022-09-09T03:15:14.119Z,12.45
2022-09-09T03:16:14.295Z,12.43
2022-09-09T03:17:14.229Z,12.42
2022-09-09T03:18:14.132Z,12.40
2022-09-09T03:19:14.087Z,12.37
2022-09-09T03:20:14.071Z,12.37
2022-09-09T03:21:14.043Z,12.35
2022-09-09T03:22:14.042Z,12.31
2022-09-09T03:23:15.928Z,12.29
2022-09-09T03:24:14.063Z,12.28
2022-09-09T03:25:14.041Z,12.25
2022-09-09T03:26:13.973Z,12.24
2022-09-09T03:27:13.964Z,12.22
2022-09-09T03:28:13.933Z,12.20
2022-09-09T03:29:13.922Z,12.18
2022-09-09T03:30:13.964Z,12.17
2022-09-09T03:31:14.077Z,12.17
2022-09-09T03:32:16.916Z,12.12
2022-09-09T03:33:16.893Z,12.12
2022-09-09T03:34:13.855Z,12.07
2022-09-09T03:35:13.843Z,12.06
2022-09-09T03:36:13.884Z,12.07
2022-09-09T03:37:13.857Z,12.04
2022-09-09T03:38:13.810Z,12.04
2022-09-09T03:39:13.777Z,12.02
2022-09-09T03:40:13.833Z,11.99
2022-09-09T03:41:13.810Z,11.95
2022-09-09T03:42:13.945Z,11.91
2022-09-09T03:43:13.828Z,11.94
2022-09-09T03:44:13.868Z,11.91
2022-09-09T03:45:13.716Z,11.91
2022-09-09T03:46:13.843Z,11.90
2022-09-09T03:47:13.679Z,11.90
2022-09-09T03:48:13.683Z,11.90
2022-09-09T03:49:13.650Z,11.87
2022-09-09T03:50:13.631Z,11.87
2022-09-09T03:51:13.729Z,11.87
2022-09-09T03:52:20.436Z,11.86
2022-09-09T03:53:17.672Z,11.86
2022-09-09T03:54:13.581Z,11.83
2022-09-09T03:55:13.731Z,11.81
2022-09-09T03:56:13.542Z,11.80
2022-09-09T03:57:13.541Z,11.83
2022-09-09T03:58:13.633Z,11.78
2022-09-09T03:59:13.576Z,11.77
2022-09-09T04:00:13.483Z,11.73
2022-09-09T04:01:13.663Z,11.73
2022-09-09T04:02:13.693Z,11.72
2022-09-09T04:03:13.564Z,11.70
2022-09-09T04:04:13.423Z,11.72
2022-09-09T04:05:13.475Z,11.72
2022-09-09T04:06:13.425Z,11.73
2022-09-09T04:07:13.406Z,11.75
2022-09-09T04:08:13.389Z,11.77
2022-09-09T04:09:13.513Z,11.80
2022-09-09T04:10:13.469Z,11.81
2022-09-09T04:11:13.349Z,11.86
2022-09-09T04:12:16.367Z,11.87
2022-09-09T04:13:16.326Z,11.94
2022-09-09T04:14:13.282Z,11.94
2022-09-09T04:15:13.938Z,11.95
2022-09-09T04:16:13.268Z,11.99
2022-09-09T04:17:13.243Z,12.00
2022-09-09T04:18:16.956Z,12.02
2022-09-09T04:19:14.240Z,12.06
2022-09-09T04:20:13.199Z,12.09
2022-09-09T04:21:13.282Z,12.10
2022-09-09T04:22:13.231Z,12.13
2022-09-09T04:23:13.151Z,12.15
2022-09-09T04:24:13.151Z,12.17
2022-09-09T04:25:13.132Z,12.18
2022-09-09T04:26:13.101Z,12.21
2022-09-09T04:27:13.171Z,12.25
2022-09-09T04:28:13.081Z,12.25
2022-09-09T04:29:13.071Z,12.27
2022-09-09T04:30:13.063Z,12.28
2022-09-09T04:31:13.191Z,12.31
2022-09-09T04:32:16.136Z,12.32
2022-09-09T04:33:16.165Z,12.36
2022-09-09T04:34:13.059Z,12.36
2022-09-09T04:35:12.978Z,12.37
2022-09-09T04:36:12.977Z,12.39
2022-09-09T04:37:13.027Z,12.40
2022-09-09T04:38:12.986Z,12.42
2022-09-09T04:39:12.956Z,12.43
2022-09-09T04:40:12.946Z,12.46
2022-09-09T04:41:13.027Z,12.49
2022-09-09T04:42:12.989Z,12.50
2022-09-09T04:43:14.580Z,12.53
2022-09-09T04:44:12.855Z,12.54
2022-09-09T04:45:13.018Z,12.55
2022-09-09T04:46:12.929Z,12.57
2022-09-09T04:47:12.916Z,12.58
2022-09-09T04:48:12.810Z,12.60
2022-09-09T04:49:15.195Z,12.62
2022-09-09T04:50:12.794Z,12.62
2022-09-09T04:51:12.750Z,12.65
2022-09-09T04:52:15.748Z,12.67
2022-09-09T04:53:15.774Z,12.72
2022-09-09T04:54:12.781Z,12.72
2022-09-09T04:55:12.742Z,12.72
2022-09-09T04:56:12.691Z,12.75
2022-09-09T04:57:17.922Z,12.75
2022-09-09T04:58:13.703Z,12.76
2022-09-09T04:59:12.672Z,12.79
2022-09-09T05:00:12.632Z,12.80
2022-09-09T05:01:12.698Z,12.80
2022-09-09T05:02:12.701Z,12.83
2022-09-09T05:03:12.584Z,12.86
2022-09-09T05:04:12.566Z,12.87
2022-09-09T05:05:12.555Z,12.90
2022-09-09T05:06:12.563Z,12.91
2022-09-09T05:07:12.534Z,12.91
2022-09-09T05:08:12.549Z,12.93
2022-09-09T05:09:12.510Z,12.95
2022-09-09T05:10:12.491Z,12.98
2022-09-09T05:11:12.467Z,13.01
2022-09-09T05:12:15.486Z,13.01
2022-09-09T05:13:15.457Z,13.08
2022-09-09T05:14:12.481Z,13.05
2022-09-09T05:15:12.427Z,13.08
2022-09-09T05:16:12.608Z,13.09
2022-09-09T05:17:12.419Z,13.09
2022-09-09T05:18:12.370Z,13.09
2022-09-09T05:19:12.360Z,13.13
2022-09-09T05:20:17.205Z,13.12
2022-09-09T05:21:13.389Z,13.15
2022-09-09T05:22:12.330Z,13.15
2022-09-09T05:23:12.303Z,13.18
2022-09-09T05:24:12.291Z,13.18
2022-09-09T05:25:12.301Z,13.20
2022-09-09T05:26:16.595Z,13.19
2022-09-09T05:27:13.270Z,13.22
2022-09-09T05:28:12.252Z,13.23
2022-09-09T05:29:12.283Z,13.25
2022-09-09T05:30:12.222Z,13.27
2022-09-09T05:31:12.265Z,13.27
2022-09-09T05:32:15.656Z,13.30
2022-09-09T05:33:15.174Z,13.35
2022-09-09T05:34:12.166Z,13.33
2022-09-09T05:35:12.135Z,13.37
2022-09-09T05:36:12.126Z,13.42
2022-09-09T05:37:12.312Z,13.44
2022-09-09T05:38:12.086Z,13.46
2022-09-09T05:39:12.075Z,13.47
2022-09-09T05:40:12.234Z,13.50
2022-09-09T05:41:12.076Z,13.52
2022-09-09T05:42:12.065Z,13.53
2022-09-09T05:43:12.187Z,13.56
2022-09-09T05:44:12.019Z,13.56
2022-09-09T05:45:11.997Z,13.57
2022-09-09T05:46:12.149Z,13.60
2022-09-09T05:47:11.979Z,13.60
2022-09-09T05:48:11.970Z,13.63
2022-09-09T05:49:14.242Z,13.67
2022-09-09T05:50:11.963Z,13.65
2022-09-09T05:51:11.919Z,13.67
2022-09-09T05:52:14.921Z,13.68
2022-09-09T05:53:14.931Z,13.71
2022-09-09T05:54:11.885Z,13.71
2022-09-09T05:55:11.901Z,13.71
2022-09-09T05:56:11.852Z,13.71
2022-09-09T05:57:11.842Z,13.72
2022-09-09T05:58:11.973Z,13.72
2022-09-09T05:59:11.813Z,13.74
2022-09-09T06:00:11.913Z,13.72
2022-09-09T06:01:11.770Z,13.74
2022-09-09T06:02:11.875Z,13.75
2022-09-09T06:03:11.939Z,13.75
2022-09-09T06:04:11.775Z,13.77
2022-09-09T06:05:11.739Z,13.77
2022-09-09T06:06:11.729Z,13.78
2022-09-09T06:07:11.745Z,13.79
2022-09-09T06:08:11.864Z,13.81
2022-09-09T06:09:11.685Z,13.81
2022-09-09T06:10:11.656Z,13.83
2022-09-09T06:11:11.656Z,13.85
2022-09-09T06:12:14.637Z,13.85
2022-09-09T06:13:14.660Z,13.87
2022-09-09T06:14:11.598Z,13.87
2022-09-09T06:15:11.608Z,13.89
2022-09-09T06:16:11.630Z,13.89
2022-09-09T06:17:11.578Z,13.90
2022-09-09T06:18:11.559Z,13.90
2022-09-09T06:19:11.519Z,13.89
2022-09-09T06:20:11.521Z,13.87
2022-09-09T06:21:11.520Z,13.87
2022-09-09T06:22:11.561Z,13.86
2022-09-09T06:23:11.512Z,13.87
2022-09-09T06:24:11.487Z,13.86
2022-09-09T06:25:11.588Z,13.89
2022-09-09T06:26:11.522Z,13.89
2022-09-09T06:27:11.434Z,13.90
2022-09-09T06:28:11.484Z,13.90
2022-09-09T06:29:11.515Z,13.93
2022-09-09T06:30:11.573Z,13.95
2022-09-09T06:31:11.481Z,13.97
2022-09-09T06:32:14.453Z,14.03
2022-09-09T06:33:14.451Z,14.10
2022-09-09T06:34:11.384Z,14.14
2022-09-09T06:35:11.401Z,14.23
2022-09-09T06:36:11.425Z,14.32
2022-09-09T06:37:11.317Z,14.43
2022-09-09T06:38:11.326Z,14.50
2022-09-09T06:39:14.742Z,14.62
2022-09-09T06:40:11.318Z,14.72
2022-09-09T06:41:11.437Z,14.82
2022-09-09T06:42:11.225Z,14.89
2022-09-09T06:43:11.197Z,14.92
2022-09-09T06:44:11.257Z,14.99
2022-09-09T06:45:11.210Z,15.04
2022-09-09T06:46:11.241Z,15.09
2022-09-09T06:47:11.251Z,15.11
2022-09-09T06:48:11.149Z,15.14
2022-09-09T06:49:11.141Z,15.15
2022-09-09T06:50:11.121Z,15.22
2022-09-09T06:51:11.101Z,15.24
2022-09-09T06:52:14.150Z,15.25
2022-09-09T06:53:14.093Z,15.33
2022-09-09T06:54:11.077Z,15.35
2022-09-09T06:55:11.041Z,15.43
2022-09-09T06:56:14.798Z,15.40
2022-09-09T06:57:36.862Z,15.36
2022-09-09T06:58:12.036Z,15.36
2022-09-09T06:59:10.993Z,15.40
2022-09-09T07:00:10.970Z,15.46
2022-09-09T07:01:11.044Z,15.52
2022-09-09T07:02:11.045Z,15.54
2022-09-09T07:03:10.934Z,15.58
2022-09-09T07:04:10.922Z,15.68
2022-09-09T07:05:10.893Z,15.68
2022-09-09T07:06:10.905Z,15.73
2022-09-09T07:07:10.866Z,15.77
2022-09-09T07:08:11.004Z,15.79
2022-09-09T07:09:10.845Z,15.86
2022-09-09T07:10:10.834Z,15.91
2022-09-09T07:11:12.523Z,15.98
2022-09-09T07:12:13.807Z,16.04
2022-09-09T07:13:13.859Z,16.10
2022-09-09T07:14:10.778Z,16.12
2022-09-09T07:15:10.763Z,16.17
2022-09-09T07:16:10.795Z,16.21
2022-09-09T07:17:10.759Z,16.21
2022-09-09T07:18:10.709Z,16.21
2022-09-09T07:19:10.959Z,16.28
2022-09-09T07:20:10.699Z,16.29
2022-09-09T07:21:10.677Z,16.31
2022-09-09T07:22:10.664Z,16.26
2022-09-09T07:23:10.660Z,16.32
2022-09-09T07:24:10.643Z,16.35
2022-09-09T07:25:10.692Z,16.32
2022-09-09T07:26:10.612Z,16.29
2022-09-09T07:27:10.605Z,16.32
2022-09-09T07:28:10.583Z,16.35
2022-09-09T07:29:10.572Z,16.36
2022-09-09T07:30:10.557Z,16.36
2022-09-09T07:31:10.634Z,16.42
2022-09-09T07:32:13.522Z,16.47
2022-09-09T07:33:13.525Z,16.51
2022-09-09T07:34:10.497Z,16.47
2022-09-09T07:35:10.484Z,16.49
2022-09-09T07:36:10.467Z,16.47
2022-09-09T07:37:10.529Z,16.47
2022-09-09T07:38:10.447Z,16.46
2022-09-09T07:39:10.427Z,16.41
2022-09-09T07:40:10.448Z,16.41
2022-09-09T07:41:10.408Z,16.46
2022-09-09T07:42:10.385Z,16.46
2022-09-09T07:43:14.318Z,16.47
2022-09-09T07:44:11.367Z,16.47
2022-09-09T07:45:10.351Z,16.49
2022-09-09T07:46:10.371Z,16.50
2022-09-09T07:47:10.310Z,16.51
2022-09-09T07:48:10.301Z,16.49
2022-09-09T07:49:10.346Z,16.49
2022-09-09T07:50:10.272Z,16.51
2022-09-09T07:51:10.261Z,16.51
2022-09-09T07:52:14.900Z,16.57
2022-09-09T07:53:13.254Z,16.66
2022-09-09T07:54:10.318Z,16.72
2022-09-09T07:55:10.249Z,16.78
2022-09-09T07:56:10.203Z,16.83
2022-09-09T07:57:10.175Z,16.89
2022-09-09T07:58:10.164Z,16.99
2022-09-09T07:59:10.146Z,17.05
2022-09-09T08:00:10.187Z,17.12
2022-09-09T08:01:10.125Z,17.09
2022-09-09T08:02:10.110Z,17.05
2022-09-09T08:03:10.131Z,17.14
2022-09-09T08:04:10.122Z,17.19
2022-09-09T08:05:10.057Z,17.20
2022-09-09T08:06:10.087Z,17.26
2022-09-09T08:07:10.037Z,17.34
2022-09-09T08:08:10.029Z,17.39
2022-09-09T08:09:10.068Z,17.41
2022-09-09T08:10:09.990Z,17.46
2022-09-09T08:11:10.208Z,17.48
2022-09-09T08:12:12.971Z,17.52
2022-09-09T08:13:18.429Z,17.59
2022-09-09T08:14:10.956Z,17.63
2022-09-09T08:15:09.940Z,17.64
2022-09-09T08:16:09.964Z,17.64
2022-09-09T08:17:09.932Z,17.68
2022-09-09T08:18:09.895Z,17.72
2022-09-09T08:19:09.889Z,17.78
2022-09-09T08:20:09.876Z,17.79
2022-09-09T08:21:09.854Z,17.83
2022-09-09T08:22:09.863Z,17.83
2022-09-09T08:23:09.835Z,17.85
2022-09-09T08:24:09.854Z,17.83
2022-09-09T08:25:09.815Z,17.85
2022-09-09T08:26:09.805Z,17.85
2022-09-09T08:27:09.815Z,17.76
2022-09-09T08:28:09.815Z,17.72
2022-09-09T08:29:09.746Z,17.72
2022-09-09T08:30:09.746Z,17.79
2022-09-09T08:31:09.844Z,17.85
2022-09-09T08:32:12.718Z,17.86
2022-09-09T08:33:12.779Z,17.92
2022-09-09T08:34:09.685Z,17.98
2022-09-09T08:35:09.677Z,17.98
2022-09-09T08:36:09.658Z,18.03
2022-09-09T08:37:09.640Z,18.05
2022-09-09T08:38:11.062Z,18.04
2022-09-09T08:39:09.641Z,18.05
2022-09-09T08:40:09.630Z,18.05
2022-09-09T08:41:09.589Z,18.07
2022-09-09T08:42:09.581Z,18.07
2022-09-09T08:43:09.561Z,18.05
2022-09-09T08:44:09.612Z,18.08
2022-09-09T08:45:09.760Z,18.11
2022-09-09T08:46:09.599Z,18.16
2022-09-09T08:47:09.574Z,18.18
2022-09-09T08:48:09.500Z,18.19
2022-09-09T08:49:09.492Z,18.23
2022-09-09T08:50:09.479Z,18.28
2022-09-09T08:51:09.454Z,18.31
2022-09-09T08:52:14.488Z,18.31
2022-09-09T08:53:12.449Z,18.34
2022-09-09T08:54:09.424Z,18.38
2022-09-09T08:55:09.406Z,18.40
2022-09-09T08:56:09.388Z,18.41
2022-09-09T08:57:09.367Z,18.44
2022-09-09T08:58:09.367Z,18.49
2022-09-09T08:59:09.358Z,18.56
2022-09-09T09:00:09.327Z,18.55
2022-09-09T09:01:09.288Z,18.59
2022-09-09T09:02:12.307Z,18.66
2022-09-09T09:03:10.266Z,18.73
2022-09-09T09:04:09.299Z,18.74
2022-09-09T09:05:09.313Z,18.74
2022-09-09T09:06:09.211Z,18.73
2022-09-09T09:07:09.209Z,18.75
2022-09-09T09:08:09.194Z,18.75
2022-09-09T09:09:09.183Z,18.71
2022-09-09T09:10:24.233Z,18.78
2022-09-09T09:11:10.153Z,18.84
2022-09-09T09:12:12.134Z,18.93
2022-09-09T09:13:12.140Z,18.98
2022-09-09T09:14:09.103Z,18.98
2022-09-09T09:15:09.144Z,19.07
2022-09-09T09:16:09.095Z,18.96
2022-09-09T09:17:09.065Z,18.99
2022-09-09T09:18:09.036Z,18.90
2022-09-09T09:19:09.044Z,18.95
2022-09-09T09:20:09.016Z,18.99
2022-09-09T09:21:09.065Z,19.08
2022-09-09T09:22:09.008Z,19.09
2022-09-09T09:23:09.034Z,19.18
2022-09-09T09:24:09.000Z,19.27
2022-09-09T09:25:08.972Z,19.36
2022-09-09T09:26:09.020Z,19.39
2022-09-09T09:27:08.990Z,19.44
2022-09-09T09:28:08.912Z,19.45
2022-09-09T09:29:08.981Z,19.51
2022-09-09T09:30:24.211Z,19.55
2022-09-09T09:31:09.918Z,19.59
2022-09-09T09:32:11.853Z,19.67
2022-09-09T09:33:11.874Z,19.67
2022-09-09T09:34:08.834Z,19.62
2022-09-09T09:35:08.863Z,19.59
2022-09-09T09:36:08.795Z,19.62
2022-09-09T09:37:08.814Z,19.67
2022-09-09T09:40:09.807Z,20.06
2022-09-09T09:41:08.736Z,20.16
2022-09-09T09:42:08.811Z,20.21
2022-09-09T09:43:08.703Z,20.31
2022-09-09T09:44:08.690Z,20.43
2022-09-09T09:45:08.681Z,20.58
2022-09-09T09:46:17.767Z,20.62
2022-09-09T09:47:09.670Z,20.66
2022-09-09T09:48:14.024Z,20.65
2022-09-09T09:49:09.610Z,20.48
2022-09-09T09:50:08.681Z,20.52
2022-09-09T09:51:08.586Z,20.60
2022-09-09T09:52:11.571Z,20.66
2022-09-09T09:53:11.573Z,20.70
2022-09-09T09:54:08.549Z,20.82
2022-09-09T09:55:08.523Z,20.84
2022-09-09T09:56:08.622Z,20.81
2022-09-09T09:57:08.503Z,20.85
2022-09-09T09:58:08.575Z,20.93
2022-09-09T09:59:17.843Z,20.90
2022-09-09T10:00:09.492Z,20.95
2022-09-09T10:01:08.481Z,20.93
2022-09-09T10:02:08.437Z,20.85
2022-09-09T10:03:08.435Z,20.81
2022-09-09T10:04:08.412Z,20.84
2022-09-09T10:05:08.454Z,21.00
2022-09-09T10:06:08.387Z,21.09
2022-09-09T10:07:08.406Z,21.14
2022-09-09T10:08:08.358Z,21.17
2022-09-09T10:09:08.348Z,21.09
2022-09-09T10:10:08.376Z,20.93
2022-09-09T10:11:08.310Z,20.92
2022-09-09T10:12:11.338Z,20.88
2022-09-09T10:13:11.388Z,20.96
2022-09-09T10:14:08.310Z,20.99
2022-09-09T10:15:08.270Z,21.06
2022-09-09T10:16:08.362Z,21.03
2022-09-09T10:17:09.054Z,20.92
2022-09-09T10:18:08.252Z,20.77
2022-09-09T10:19:08.193Z,20.84
2022-09-09T10:20:08.194Z,20.80
2022-09-09T10:21:08.210Z,20.67
2022-09-09T10:22:08.309Z,20.60
2022-09-09T10:23:08.156Z,20.67
2022-09-09T10:24:08.125Z,20.69
2022-09-09T10:25:08.134Z,20.75
2022-09-09T10:26:08.115Z,20.80
2022-09-09T10:27:08.117Z,20.97
2022-09-09T10:28:08.100Z,21.12
2022-09-09T10:29:08.058Z,21.30
2022-09-09T10:30:08.059Z,21.43
2022-09-09T10:31:08.128Z,21.61
2022-09-09T10:32:11.039Z,21.76
2022-09-09T10:33:11.084Z,21.93
2022-09-09T10:34:08.016Z,22.02
2022-09-09T10:35:08.002Z,22.13
2022-09-09T10:36:07.995Z,22.26
2022-09-09T10:37:07.962Z,22.20
2022-09-09T10:38:07.971Z,22.06
2022-09-09T10:39:08.140Z,22.14
2022-09-09T10:40:07.970Z,22.29
2022-09-09T10:41:07.911Z,22.36
2022-09-09T10:42:07.973Z,22.26
2022-09-09T10:43:07.874Z,22.22
2022-09-09T10:44:07.861Z,22.25
2022-09-09T10:45:07.906Z,22.28
2022-09-09T10:46:07.874Z,22.33
2022-09-09T10:47:08.704Z,22.30
2022-09-09T10:48:07.847Z,22.25
2022-09-09T10:49:07.797Z,22.14
2022-09-09T10:50:07.787Z,22.07
2022-09-09T10:51:07.798Z,22.13
2022-09-09T10:52:10.758Z,22.14
2022-09-09T10:53:10.750Z,22.30
2022-09-09T10:54:07.729Z,22.36
2022-09-09T10:55:07.720Z,22.26
2022-09-09T10:56:07.737Z,22.33
2022-09-09T10:57:09.131Z,22.39
2022-09-09T10:58:07.693Z,22.44
2022-09-09T10:59:07.682Z,22.55
2022-09-09T11:00:07.631Z,22.66
2022-09-09T11:01:07.704Z,22.85
2022-09-09T11:02:07.704Z,23.00
2022-09-09T11:03:07.632Z,23.09
2022-09-09T11:04:07.626Z,22.99
2022-09-09T11:05:07.593Z,22.85
2022-09-09T11:06:07.641Z,22.68
2022-09-09T11:07:11.813Z,22.60
2022-09-09T11:08:07.545Z,22.69
2022-09-09T11:09:07.526Z,22.87
2022-09-09T11:10:07.498Z,22.93
2022-09-09T11:11:07.495Z,22.94
2022-09-09T11:12:10.692Z,22.91
2022-09-09T11:13:10.502Z,22.90
2022-09-09T11:14:07.591Z,22.73
2022-09-09T11:15:07.428Z,22.68
2022-09-09T11:16:07.420Z,22.63
2022-09-09T11:17:08.401Z,22.57
2022-09-09T11:18:07.401Z,22.38
2022-09-09T11:19:07.382Z,22.35
2022-09-09T11:20:07.417Z,22.35
2022-09-09T11:21:07.342Z,22.47
2022-09-09T11:22:08.337Z,22.62
2022-09-09T11:23:07.314Z,22.62
2022-09-09T11:24:07.317Z,22.62
2022-09-09T11:25:07.304Z,22.54
2022-09-09T11:26:07.284Z,22.43
2022-09-09T11:27:08.246Z,22.39
2022-09-09T11:28:07.254Z,22.29
2022-09-09T11:29:07.248Z,22.26
2022-09-09T11:30:07.292Z,22.25
2022-09-09T11:31:07.253Z,22.25
2022-09-09T11:32:10.930Z,22.25
2022-09-09T11:33:10.230Z,22.23
2022-09-09T11:34:07.190Z,22.17
2022-09-09T11:35:07.218Z,22.28
2022-09-09T11:36:07.986Z,22.43
2022-09-09T11:37:07.887Z,22.69
2022-09-09T11:38:07.130Z,22.90
2022-09-09T11:39:07.120Z,23.12
2022-09-09T11:40:07.191Z,23.13
2022-09-09T11:41:07.209Z,23.21
2022-09-09T11:42:07.204Z,23.24
2022-09-09T11:43:07.065Z,22.99
2022-09-09T11:44:07.032Z,22.98
2022-09-09T11:45:07.030Z,22.91
2022-09-09T11:46:07.051Z,22.78
2022-09-09T11:47:07.724Z,22.69
2022-09-09T11:48:07.043Z,22.66
2022-09-09T11:49:06.965Z,22.68
2022-09-09T11:50:06.980Z,22.68
2022-09-09T11:51:06.994Z,22.68
2022-09-09T11:52:09.938Z,22.63
2022-09-09T11:53:09.957Z,22.47
2022-09-09T11:54:06.887Z,22.26
2022-09-09T11:55:06.908Z,22.28
2022-09-09T11:56:06.879Z,22.25
2022-09-09T11:57:07.030Z,22.30
2022-09-09T11:58:06.870Z,22.45
2022-09-09T11:59:06.850Z,22.60
2022-09-09T12:00:06.833Z,22.59
2022-09-09T12:01:06.811Z,22.59
2022-09-09T12:02:06.837Z,22.59
2022-09-09T12:03:07.003Z,22.57
2022-09-09T12:04:06.799Z,22.44
2022-09-09T12:05:06.850Z,22.41
2022-09-09T12:06:06.756Z,22.36
2022-09-09T12:07:07.040Z,22.43
2022-09-09T12:08:06.974Z,22.44
2022-09-09T12:09:06.942Z,22.48
2022-09-09T12:10:06.785Z,22.47
2022-09-09T12:11:06.645Z,22.41
2022-09-09T12:12:10.375Z,22.39
2022-09-09T12:13:09.698Z,22.41
2022-09-09T12:14:06.656Z,22.44
2022-09-09T12:15:06.609Z,22.48
2022-09-09T12:16:06.628Z,22.47
2022-09-09T12:17:06.678Z,22.47
2022-09-09T12:18:07.023Z,22.51
2022-09-09T12:19:06.801Z,22.48
2022-09-09T12:20:06.531Z,22.48
2022-09-09T12:21:06.520Z,22.54
2022-09-09T12:22:06.540Z,22.59
2022-09-09T12:23:06.632Z,22.54
2022-09-09T12:24:06.574Z,22.50
2022-09-09T12:25:06.634Z,22.55
2022-09-09T12:26:06.443Z,22.63
2022-09-09T12:27:06.524Z,22.60
2022-09-09T12:28:06.424Z,22.55
2022-09-09T12:29:06.614Z,22.54
2022-09-09T12:30:06.419Z,22.53
2022-09-09T12:31:06.510Z,22.55
2022-09-09T12:32:09.366Z,22.59
2022-09-09T12:33:09.387Z,22.55
2022-09-09T12:34:06.417Z,22.55
2022-09-09T12:35:06.330Z,22.41
2022-09-09T12:36:06.364Z,22.35
2022-09-09T12:37:06.370Z,22.32
2022-09-09T12:38:06.955Z,22.25
2022-09-09T12:39:06.269Z,22.26
2022-09-09T12:40:06.498Z,22.26
2022-09-09T12:41:06.253Z,22.22
2022-09-09T12:42:06.230Z,22.20
2022-09-09T12:43:06.218Z,22.17
2022-09-09T12:44:06.577Z,22.17
2022-09-09T12:45:06.244Z,22.08
2022-09-09T12:46:06.284Z,22.06
2022-09-09T12:47:06.174Z,21.99
2022-09-09T12:48:06.136Z,21.92
2022-09-09T12:49:06.114Z,21.91
2022-09-09T12:50:06.149Z,21.96
2022-09-09T12:51:06.099Z,21.83
2022-09-09T12:52:09.141Z,21.83
2022-09-09T12:53:09.095Z,21.89
2022-09-09T12:54:06.086Z,21.89